Time;durP1;ratioP1;P1;durP2;ratioP2;P2;SDS_P1;SDS_P2;PMS_P1;PMS_P2;Temp;Humidity;BMP_temperature;BMP_pressure;BME280_temperature;BME280_humidity;BME280_pressure;Samples;Min_cycle;Max_cycle;Signal;HPM_P1;HPM_P2
2021/07/10 00:01:10;;;;;;;27.62;11.53;;;;;;;22.06;75.81;101100.63;1779152;79;21105;-61
2021/07/10 00:03:36;;;;;;;28.42;11.90;;;;;;;22.01;75.99;101097.78;1774554;79;21785;-60
2021/07/10 00:06:03;;;;;;;35.35;12.55;;;;;;;21.97;76.11;101094.89;1778765;79;20964;-60
2021/07/10 00:08:29;;;;;;;29.05;12.37;;;;;;;21.94;76.32;101091.55;1773574;79;20977;-60
2021/07/10 00:10:57;;;;;;;27.30;11.12;;;;;;;21.92;76.39;101087.56;1768836;79;20940;-64
2021/07/10 00:13:26;;;;;;;26.75;12.10;;;;;;;21.89;76.33;101084.59;1776004;79;20948;-64
2021/07/10 00:15:52;;;;;;;32.55;14.25;;;;;;;21.86;76.34;101090.27;1777263;79;21377;-61
2021/07/10 00:18:18;;;;;;;39.30;14.15;;;;;;;21.86;76.41;101082.59;1776672;79;21015;-60
2021/07/10 00:20:47;;;;;;;38.98;16.40;;;;;;;21.85;76.51;101083.58;1764291;79;20997;-60
2021/07/10 00:23:15;;;;;;;34.05;16.32;;;;;;;21.83;76.70;101080.95;1732812;81;20992;-61
2021/07/10 00:25:42;;;;;;;46.42;17.32;;;;;;;21.82;77.02;101078.36;1735920;81;20993;-58
2021/07/10 00:28:09;;;;;;;37.90;17.65;;;;;;;21.79;77.28;101075.88;1674127;84;21506;-61
2021/07/10 00:30:36;;;;;;;45.17;17.92;;;;;;;21.75;77.43;101078.81;1690364;83;20916;-61
2021/07/10 00:33:02;;;;;;;43.52;18.50;;;;;;;21.73;77.65;101073.98;1698305;83;21644;-61
2021/07/10 00:35:30;;;;;;;38.58;18.15;;;;;;;21.72;77.88;101073.60;1684192;83;21089;-58
2021/07/10 00:37:57;;;;;;;42.62;20.08;;;;;;;21.67;78.26;101071.73;1697072;83;21454;-60
2021/07/10 00:40:23;;;;;;;52.98;22.52;;;;;;;21.64;78.33;101081.48;1692984;83;21749;-62
2021/07/10 00:42:50;;;;;;;47.60;20.82;;;;;;;21.60;78.71;101074.53;1735635;82;21665;-59
2021/07/10 00:45:16;;;;;;;42.75;18.95;;;;;;;21.59;79.22;101080.98;1735608;82;21491;-59
2021/07/10 00:47:43;;;;;;;33.55;17.45;;;;;;;21.55;79.55;101070.78;1690089;83;20970;-61
2021/07/10 00:50:13;;;;;;;38.78;17.57;;;;;;;21.52;79.79;101079.69;1732749;81;21142;-62
2021/07/10 00:52:41;;;;;;;39.40;17.30;;;;;;;21.49;79.71;101079.92;1724726;81;22380;-61
2021/07/10 00:55:09;;;;;;;42.93;17.10;;;;;;;21.45;79.72;101071.98;1689750;83;20918;-62
2021/07/10 00:57:37;;;;;;;48.70;17.35;;;;;;;21.43;79.88;101073.95;1733659;82;21199;-62
2021/07/10 01:00:06;;;;;;;41.08;15.50;;;;;;;21.43;79.84;101079.89;1734339;81;21015;-63
2021/07/10 01:02:33;;;;;;;49.25;16.17;;;;;;;21.41;79.73;101071.84;1671934;84;21538;-62
2021/07/10 01:05:02;;;;;;;42.23;15.72;;;;;;;21.41;79.47;101073.20;1731845;82;22150;-63
2021/07/10 01:07:30;;;;;;;41.02;16.70;;;;;;;21.40;79.17;101073.31;1733780;82;21387;-63
2021/07/10 01:09:57;;;;;;;46.48;14.85;;;;;;;21.40;79.38;101071.47;1734498;82;20925;-63
2021/07/10 01:12:24;;;;;;;39.42;16.25;;;;;;;21.41;79.41;101074.57;1735675;81;21128;-61
2021/07/10 01:14:51;;;;;;;48.98;15.75;;;;;;;21.40;79.62;101071.47;1736088;82;21090;-62
2021/07/10 01:17:17;;;;;;;41.83;15.38;;;;;;;21.37;80.08;101065.37;1738973;81;21681;-64
2021/07/10 01:19:45;;;;;;;38.70;14.33;;;;;;;21.34;80.33;101071.94;1738861;81;20966;-63
2021/07/10 01:22:12;;;;;;;39.53;15.13;;;;;;;21.32;80.83;101068.44;1734135;80;21029;-63
2021/07/10 01:24:39;;;;;;;38.78;13.90;;;;;;;21.32;81.40;101069.80;1698302;82;21086;-62
2021/07/10 01:27:06;;;;;;;35.55;14.28;;;;;;;21.30;81.85;101070.41;1766421;79;20949;-61
2021/07/10 01:29:33;;;;;;;26.95;13.85;;;;;;;21.29;82.21;101057.28;1768902;79;21071;-62
2021/07/10 01:32:01;;;;;;;33.00;14.25;;;;;;;21.28;82.64;101068.30;1769246;80;20929;-63
2021/07/10 01:34:29;;;;;;;26.97;13.93;;;;;;;21.27;82.84;101058.38;1722648;81;21434;-63
2021/07/10 01:36:55;;;;;;;28.70;14.18;;;;;;;21.27;83.03;101062.47;1764178;80;21711;-64
2021/07/10 01:39:22;;;;;;;25.92;12.98;;;;;;;21.26;82.91;101067.55;1769011;79;20927;-60
2021/07/10 01:41:49;;;;;;;31.05;15.25;;;;;;;21.26;83.02;101063.45;1766380;80;21791;-61
2021/07/10 01:44:15;;;;;;;28.05;14.38;;;;;;;21.27;82.68;101061.10;1762987;80;21080;-60
2021/07/10 01:46:42;;;;;;;27.60;13.62;;;;;;;21.26;82.84;101067.55;1765711;79;21018;-61
2021/07/10 01:49:09;;;;;;;24.63;14.18;;;;;;;21.24;82.43;101071.77;1765386;80;20970;-61
2021/07/10 01:51:36;;;;;;;26.90;14.73;;;;;;;21.22;82.29;101064.67;1756854;80;21005;-61
2021/07/10 01:54:03;;;;;;;38.70;17.62;;;;;;;21.20;82.19;101065.29;1767518;80;21572;-63
2021/07/10 01:56:30;;;;;;;37.03;15.85;;;;;;;21.18;82.07;101073.09;1766749;80;21065;-61
2021/07/10 01:58:56;;;;;;;26.45;15.48;;;;;;;21.16;82.01;101060.55;1766723;79;20972;-62
2021/07/10 02:01:25;;;;;;;28.52;15.95;;;;;;;21.11;81.94;101069.09;1765813;79;21004;-63
2021/07/10 02:03:51;;;;;;;31.87;15.40;;;;;;;21.05;82.05;101064.08;1768807;80;21612;-62
2021/07/10 02:06:17;;;;;;;32.20;14.80;;;;;;;21.00;82.18;101063.56;1764121;79;21098;-63
2021/07/10 02:08:46;;;;;;;29.50;15.28;;;;;;;20.97;82.04;101067.87;1767443;80;21470;-64
2021/07/10 02:11:12;;;;;;;29.30;15.13;;;;;;;20.93;81.87;101063.14;1764918;80;20949;-66
2021/07/10 02:13:42;;;;;;;21.95;13.90;;;;;;;20.92;81.57;101065.99;1763414;80;20930;-61
2021/07/10 02:16:11;;;;;;;29.98;14.60;;;;;;;20.91;81.32;101069.70;1758567;80;20931;-63
2021/07/10 02:18:38;;;;;;;32.80;17.17;;;;;;;20.92;81.56;101068.72;1757810;79;21526;-63
2021/07/10 02:21:04;;;;;;;26.87;17.15;;;;;;;20.88;81.74;101067.56;1767742;79;20867;-62
2021/07/10 02:23:33;;;;;;;37.80;17.52;;;;;;;20.88;82.18;101071.64;1781175;79;20925;-60
2021/07/10 02:25:59;;;;;;;34.40;18.12;;;;;;;20.89;82.31;101069.33;1778263;79;21064;-59
2021/07/10 02:28:26;;;;;;;32.85;16.30;;;;;;;20.91;82.41;101069.70;1777406;79;21036;-59
2021/07/10 02:30:52;;;;;;;28.62;15.80;;;;;;;20.91;82.45;101075.16;1773757;79;21156;-60
2021/07/10 02:33:18;;;;;;;32.08;16.55;;;;;;;20.92;82.60;101076.89;1773012;79;20924;-62
2021/07/10 02:35:45;;;;;;;31.85;18.98;;;;;;;20.95;82.42;101069.85;1733737;81;21025;-62
2021/07/10 02:38:12;;;;;;;35.05;20.57;;;;;;;20.98;82.18;101069.11;1731749;81;20960;-63
2021/07/10 02:40:39;;;;;;;43.35;26.37;;;;;;;21.02;81.78;101073.85;1712697;82;21378;-63
2021/07/10 02:43:06;;;;;;;50.83;29.20;;;;;;;21.07;81.31;101077.61;1703922;83;21095;-65
2021/07/10 02:45:35;;;;;;;40.25;25.70;;;;;;;21.12;80.58;101078.13;1735391;81;21561;-62
2021/07/10 02:48:04;;;;;;;38.08;21.97;;;;;;;21.17;79.97;101076.80;1734958;81;20973;-62
2021/07/10 02:50:34;;;;;;;41.73;20.23;;;;;;;21.23;79.77;101071.88;1734649;81;21490;-59
2021/07/10 02:53:04;;;;;;;30.40;16.82;;;;;;;21.27;79.16;101076.09;1776433;79;21473;-59
2021/07/10 02:55:32;;;;;;;41.88;17.77;;;;;;;21.29;78.74;101072.28;1731731;81;20914;-60
2021/07/10 02:57:59;;;;;;;39.00;18.32;;;;;;;21.33;78.53;101070.17;1781845;79;20975;-61
2021/07/10 03:00:28;;;;;;;35.73;17.82;;;;;;;21.37;78.29;101071.70;1778018;79;20916;-62
2021/07/10 03:02:56;;;;;;;30.75;16.17;;;;;;;21.41;78.41;101072.32;1778828;79;20960;-59
2021/07/10 03:05:22;;;;;;;29.92;16.10;;;;;;;21.42;78.13;101070.86;1775353;79;20893;-59
2021/07/10 03:07:51;;;;;;;34.30;17.95;;;;;;;21.43;77.50;101076.69;1740757;79;20919;-59
2021/07/10 03:10:25;;;;;;;39.85;15.72;;;;;;;21.47;77.76;101078.19;1777536;79;20941;-59
2021/07/10 03:12:55;;;;;;;34.30;15.90;;;;;;;21.53;77.37;101077.33;1777794;79;20976;-64
2021/07/10 03:15:22;;;;;;;31.20;16.70;;;;;;;21.59;77.19;101080.98;1770674;80;21478;-64
2021/07/10 03:17:48;;;;;;;30.97;15.60;;;;;;;21.67;76.75;101080.42;1774726;79;21505;-64
2021/07/10 03:20:18;;;;;;;37.23;17.95;;;;;;;21.73;76.18;101076.70;1774378;79;21760;-64
2021/07/10 03:22:45;;;;;;;35.20;17.17;;;;;;;21.80;76.02;101080.34;1775407;80;21011;-63
2021/07/10 03:25:12;;;;;;;35.33;17.82;;;;;;;21.87;75.71;101080.23;1771339;80;21385;-63
2021/07/10 03:27:39;;;;;;;33.55;16.00;;;;;;;21.92;75.21;101071.18;1772806;79;21415;-63
2021/07/10 03:30:08;;;;;;;37.73;15.58;;;;;;;21.97;74.92;101073.05;1775474;79;21560;-65
2021/07/10 03:32:35;;;;;;;44.65;13.53;;;;;;;22.04;74.96;101075.69;1774815;79;21094;-67
2021/07/10 03:35:01;;;;;;;24.32;12.13;;;;;;;22.09;74.99;101079.41;1740540;81;21493;-69
2021/07/10 03:37:27;;;;;;;26.68;11.95;;;;;;;22.15;75.00;101071.23;1714408;82;21384;-63
2021/07/10 03:39:54;;;;;;;40.52;12.15;;;;;;;22.20;74.43;101066.77;1712535;82;21375;-64
2021/07/10 03:42:21;;;;;;;43.50;13.28;;;;;;;22.26;74.07;101071.26;1725441;81;20963;-66
2021/07/10 03:44:47;;;;;;;36.53;13.53;;;;;;;22.33;73.64;101065.67;1688245;82;21089;-65
2021/07/10 03:47:14;;;;;;;38.85;11.60;;;;;;;22.43;72.84;101071.75;1731412;81;20937;-65
2021/07/10 03:49:41;;;;;;;32.80;11.22;;;;;;;22.49;72.12;101066.33;1706712;82;21183;-63
2021/07/10 03:52:07;;;;;;;32.08;11.40;;;;;;;22.57;71.77;101066.08;1742117;80;20997;-63
2021/07/10 03:54:34;;;;;;;45.00;10.68;;;;;;;22.65;71.39;101068.67;1731782;81;20940;-62
2021/07/10 03:57:00;;;;;;;42.27;11.38;;;;;;;22.74;70.28;101076.14;1739545;81;21130;-62
2021/07/10 03:59:27;;;;;;;31.10;11.05;;;;;;;22.80;70.46;101068.80;1779912;79;21018;-60
2021/07/10 04:01:54;;;;;;;30.40;11.20;;;;;;;22.87;69.95;101064.55;1777815;79;20918;-59
2021/07/10 04:04:20;;;;;;;25.75;11.10;;;;;;;22.96;69.73;101062.07;1774735;79;20953;-60
2021/07/10 04:06:47;;;;;;;41.63;10.50;;;;;;;23.00;69.53;101056.71;1775557;79;21329;-60
2021/07/10 04:09:14;;;;;;;28.27;9.75;;;;;;;23.08;69.11;101055.56;1771393;79;21705;-60
2021/07/10 04:11:42;;;;;;;29.42;10.30;;;;;;;23.14;68.80;101052.34;1771786;79;20964;-60
2021/07/10 04:14:09;;;;;;;33.88;10.25;;;;;;;23.26;68.87;101059.16;1773617;79;21427;-60
2021/07/10 04:16:35;;;;;;;33.33;9.45;;;;;;;23.39;67.51;101057.13;1739670;80;21501;-60
2021/07/10 04:19:02;;;;;;;26.68;8.65;;;;;;;23.50;67.16;101048.49;1734850;81;21026;-61
2021/07/10 04:21:30;;;;;;;19.27;9.05;;;;;;;23.60;66.32;101049.45;1721240;82;21493;-61
2021/07/10 04:23:56;;;;;;;19.87;9.15;;;;;;;23.70;65.83;101055.86;1781874;79;20842;-61
2021/07/10 04:26:23;;;;;;;18.90;9.25;;;;;;;23.80;65.31;101053.72;1786056;79;21042;-61
2021/07/10 04:28:49;;;;;;;18.90;8.30;;;;;;;23.85;64.99;101052.28;1778113;79;21047;-60
2021/07/10 04:31:17;;;;;;;27.73;9.23;;;;;;;23.91;65.11;101046.78;1784988;78;21821;-60
2021/07/10 04:33:43;;;;;;;19.95;8.75;;;;;;;24.00;64.81;101054.22;1746408;81;21773;-61
2021/07/10 04:36:10;;;;;;;22.80;9.40;;;;;;;24.09;64.45;101049.80;1783175;79;20940;-59
2021/07/10 04:38:38;;;;;;;20.55;7.85;;;;;;;24.18;64.37;101042.65;1784505;79;20917;-60
2021/07/10 04:41:06;;;;;;;20.30;7.85;;;;;;;24.27;63.76;101047.81;1782713;78;21020;-60
2021/07/10 04:43:33;;;;;;;23.67;8.73;;;;;;;24.39;63.49;101049.47;1779658;78;21049;-60
2021/07/10 04:46:01;;;;;;;25.17;7.67;;;;;;;24.51;63.05;101048.88;1783493;80;21941;-60
2021/07/10 04:48:27;;;;;;;23.18;8.40;;;;;;;24.67;63.13;101044.75;1780671;79;20901;-60
2021/07/10 04:50:54;;;;;;;26.02;8.78;;;;;;;24.84;62.68;101052.31;1779063;78;20985;-60
2021/07/10 04:53:22;;;;;;;27.25;8.15;;;;;;;24.98;62.56;101039.23;1736822;81;21061;-60
2021/07/10 04:55:49;;;;;;;31.12;8.38;;;;;;;25.12;61.60;101040.69;1785116;79;21024;-61
2021/07/10 04:58:16;;;;;;;19.90;6.97;;;;;;;25.26;61.73;101047.63;1782294;79;21089;-61
2021/07/10 05:00:42;;;;;;;28.00;7.80;;;;;;;25.39;61.28;101048.72;1783824;78;21455;-60
2021/07/10 05:03:11;;;;;;;14.85;6.70;;;;;;;25.53;59.54;101051.08;1781505;80;20912;-60
2021/07/10 05:05:39;;;;;;;23.22;7.08;;;;;;;25.65;57.77;101046.83;1738655;80;21036;-60
2021/07/10 05:08:06;;;;;;;28.65;7.10;;;;;;;25.78;57.42;101054.76;1783029;79;21058;-59
2021/07/10 05:10:33;;;;;;;18.48;6.95;;;;;;;25.91;57.04;101051.17;1773584;78;21130;-60
2021/07/10 05:12:59;;;;;;;19.70;7.05;;;;;;;26.08;56.69;101045.95;1781686;78;20905;-60
2021/07/10 05:15:26;;;;;;;20.57;7.50;;;;;;;26.27;56.74;101043.67;1784127;79;21341;-59
2021/07/10 05:17:53;;;;;;;14.95;6.47;;;;;;;26.47;57.62;101043.10;1784635;79;21446;-60
2021/07/10 05:20:19;;;;;;;22.07;6.70;;;;;;;26.60;55.83;101038.09;1785077;79;20985;-60
2021/07/10 05:22:45;;;;;;;12.85;6.28;;;;;;;26.74;54.46;101047.72;1776098;79;21419;-66
2021/07/10 05:25:12;;;;;;;18.42;6.30;;;;;;;26.85;52.54;101041.70;1750126;81;21048;-66
2021/07/10 05:27:39;;;;;;;15.03;7.62;;;;;;;26.91;51.92;101040.23;1744038;80;21043;-65
2021/07/10 05:30:15;;;;;;;15.50;9.35;;;;;;;27.00;51.58;101040.67;1747860;80;21497;-66
2021/07/10 05:32:42;;;;;;;36.13;23.38;;;;;;;27.11;50.57;101043.21;1749541;80;21123;-66
2021/07/10 05:35:09;;;;;;;36.10;22.62;;;;;;;27.23;50.10;101043.84;1757496;80;21487;-59
2021/07/10 05:37:36;;;;;;;26.57;18.98;;;;;;;27.35;49.91;101038.97;1748553;81;21000;-60
2021/07/10 05:40:04;;;;;;;25.80;13.32;;;;;;;27.46;49.85;101035.12;1744897;80;21368;-60
2021/07/10 05:42:31;;;;;;;23.57;9.13;;;;;;;27.58;49.91;101030.27;1743748;80;20981;-60
2021/07/10 05:44:58;;;;;;;17.90;6.33;;;;;;;27.74;49.92;101026.27;1745961;81;21074;-59
2021/07/10 05:47:24;;;;;;;14.83;6.20;;;;;;;27.86;49.05;101028.75;1752897;81;21580;-60
2021/07/10 05:49:50;;;;;;;13.85;6.47;;;;;;;27.91;48.53;101030.50;1742043;80;21528;-60
2021/07/10 05:52:17;;;;;;;9.85;5.50;;;;;;;27.98;47.78;101038.49;1746024;81;20929;-67
2021/07/10 05:54:43;;;;;;;11.22;5.37;;;;;;;28.03;46.76;101033.35;1743235;81;20931;-65
2021/07/10 05:57:10;;;;;;;9.30;5.33;;;;;;;28.09;46.66;101028.21;1750016;80;20950;-65
2021/07/10 05:59:37;;;;;;;11.88;5.72;;;;;;;28.15;45.77;101037.20;1743597;80;21387;-66
2021/07/10 06:02:06;;;;;;;16.50;5.65;;;;;;;28.23;45.36;101035.04;1749878;80;20941;-61
2021/07/10 06:04:34;;;;;;;12.25;5.45;;;;;;;28.31;45.14;101039.24;1749965;80;21023;-61
2021/07/10 06:07:02;;;;;;;14.53;5.83;;;;;;;28.41;45.03;101037.75;1749055;80;21001;-62
2021/07/10 06:09:28;;;;;;;13.62;5.50;;;;;;;28.51;44.80;101034.33;1744561;80;21051;-62
2021/07/10 06:11:56;;;;;;;9.60;5.80;;;;;;;28.66;44.71;101026.81;1740229;80;21571;-62
2021/07/10 06:14:22;;;;;;;12.15;5.97;;;;;;;28.79;44.35;101035.50;1747277;81;21453;-68
2021/07/10 06:16:49;;;;;;;12.23;5.45;;;;;;;28.91;44.23;101032.45;1750727;80;21365;-67
2021/07/10 06:19:16;;;;;;;14.00;5.75;;;;;;;29.06;44.10;101030.73;1747595;80;21039;-68
2021/07/10 06:21:43;;;;;;;11.33;4.87;;;;;;;29.21;44.00;101021.80;1744868;80;20974;-68
2021/07/10 06:24:10;;;;;;;12.85;5.58;;;;;;;29.37;43.98;101021.83;1765690;79;21047;-61
2021/07/10 06:26:36;;;;;;;19.92;5.50;;;;;;;29.52;43.94;101021.19;1679629;83;21542;-62
2021/07/10 06:29:03;;;;;;;14.98;6.45;;;;;;;29.70;44.34;101023.22;1754743;79;21477;-62
2021/07/10 06:31:30;;;;;;;12.10;5.60;;;;;;;29.85;43.81;101023.91;1748345;80;21051;-63
2021/07/10 06:33:59;;;;;;;11.12;5.08;;;;;;;29.93;43.74;101023.89;1737729;80;20976;-68
2021/07/10 06:36:24;;;;;;;11.18;5.47;;;;;;;29.96;43.25;101024.95;1706304;82;21579;-69
2021/07/10 06:38:51;;;;;;;12.55;5.45;;;;;;;30.05;42.78;101020.80;1745365;80;21012;-69
2021/07/10 06:41:18;;;;;;;8.78;5.15;;;;;;;30.14;43.34;101007.30;1743159;80;21079;-62
2021/07/10 06:43:44;;;;;;;9.15;4.75;;;;;;;30.23;41.93;101013.16;1751034;80;21041;-62
2021/07/10 06:46:11;;;;;;;15.93;5.05;;;;;;;30.27;42.12;101015.03;1747823;80;20924;-62
2021/07/10 06:48:38;;;;;;;21.52;5.28;;;;;;;30.33;42.68;101009.31;1747719;80;21667;-63
2021/07/10 06:51:04;;;;;;;16.70;4.72;;;;;;;30.45;42.30;101007.89;1702740;82;20965;-62
2021/07/10 06:53:32;;;;;;;13.22;4.87;;;;;;;30.46;42.02;101009.62;1707155;82;21520;-62
2021/07/10 06:55:58;;;;;;;14.03;4.80;;;;;;;30.45;42.03;101009.28;1706229;82;20977;-62
2021/07/10 06:58:25;;;;;;;8.55;4.30;;;;;;;30.47;41.44;101009.96;1747770;80;21139;-67
2021/07/10 07:00:52;;;;;;;10.85;4.33;;;;;;;30.48;41.93;101011.68;1743882;80;21094;-66
2021/07/10 07:03:18;;;;;;;11.33;4.65;;;;;;;30.48;42.08;101009.42;1747921;80;20996;-67
2021/07/10 07:05:44;;;;;;;9.50;5.35;;;;;;;30.47;41.64;101008.58;1746555;80;21099;-62
2021/07/10 07:08:11;;;;;;;7.55;4.28;;;;;;;30.48;40.67;101007.53;1748058;81;21036;-62
2021/07/10 07:10:38;;;;;;;15.88;4.95;;;;;;;30.44;40.25;101006.17;1737761;80;21478;-62
2021/07/10 07:13:04;;;;;;;10.65;4.50;;;;;;;30.38;40.36;101012.39;1749855;80;21787;-67
2021/07/10 07:15:33;;;;;;;5.70;4.05;;;;;;;30.36;40.58;101000.15;1741010;80;21051;-68
2021/07/10 07:18:01;;;;;;;7.40;4.40;;;;;;;30.37;40.28;101002.38;1732096;80;21389;-67
2021/07/10 07:20:28;;;;;;;14.38;5.37;;;;;;;30.34;40.12;101011.03;1748562;80;21460;-68
2021/07/10 07:22:55;;;;;;;16.67;4.67;;;;;;;30.26;41.00;101007.77;1746792;80;20917;-68
2021/07/10 07:25:22;;;;;;;10.93;4.78;;;;;;;30.23;41.37;100999.33;1743002;80;21766;-67
2021/07/10 07:27:49;;;;;;;9.15;4.45;;;;;;;30.25;41.09;100997.75;1756931;80;20888;-69
2021/07/10 07:30:16;;;;;;;9.95;4.67;;;;;;;30.23;41.21;100997.08;1779159;79;21100;-69
2021/07/10 07:32:43;;;;;;;8.93;5.00;;;;;;;30.25;40.80;100994.99;1783235;79;20969;-69
2021/07/10 07:35:11;;;;;;;6.45;4.70;;;;;;;30.30;41.27;101011.94;1779214;79;20989;-62
2021/07/10 07:37:38;;;;;;;7.25;4.50;;;;;;;30.36;41.73;101000.15;1772121;79;21074;-62
2021/07/10 07:40:07;;;;;;;7.10;4.37;;;;;;;30.42;41.52;101003.58;1785653;79;21588;-62
2021/07/10 07:42:34;;;;;;;7.83;4.80;;;;;;;30.46;41.97;100998.55;1733837;81;21033;-62
2021/07/10 07:45:01;;;;;;;13.98;4.95;;;;;;;30.51;41.85;100993.34;1735210;81;21012;-61
2021/07/10 07:47:27;;;;;;;12.60;5.35;;;;;;;30.57;41.36;100996.76;1778426;79;21567;-62
2021/07/10 07:49:54;;;;;;;11.73;5.05;;;;;;;30.63;41.27;100994.38;1780010;79;21409;-68
2021/07/10 07:52:20;;;;;;;9.88;4.97;;;;;;;30.72;41.66;100990.50;1776159;79;20937;-68
2021/07/10 07:54:48;;;;;;;12.37;4.95;;;;;;;30.80;42.09;101002.05;1779614;79;20931;-68
2021/07/10 07:57:15;;;;;;;12.15;5.62;;;;;;;30.89;41.06;101004.25;1779300;79;21052;-69
2021/07/10 07:59:42;;;;;;;7.53;5.15;;;;;;;30.87;41.10;100998.38;1775694;79;21052;-69
2021/07/10 08:02:09;;;;;;;8.00;5.20;;;;;;;30.89;41.73;100997.33;1775521;79;21068;-69
2021/07/10 08:04:36;;;;;;;10.95;5.00;;;;;;;30.97;41.66;100990.34;1780883;79;21366;-69
2021/07/10 08:07:05;;;;;;;11.63;5.03;;;;;;;31.06;40.99;100999.46;1778161;79;20866;-69
2021/07/10 08:09:35;;;;;;;13.48;5.53;;;;;;;31.15;40.34;100995.58;1774386;79;20947;-69
2021/07/10 08:12:02;;;;;;;13.13;5.78;;;;;;;31.26;40.93;100999.86;1780322;79;20948;-69
2021/07/10 08:14:30;;;;;;;7.75;4.72;;;;;;;31.26;38.54;100988.78;1787183;79;20936;-69
2021/07/10 08:16:56;;;;;;;13.88;5.65;;;;;;;31.28;39.45;100994.99;1781992;79;21391;-69
2021/07/10 08:19:28;;;;;;;17.12;5.25;;;;;;;31.32;40.94;100997.75;1773971;79;21122;-68
2021/07/10 08:21:54;;;;;;;7.25;4.70;;;;;;;31.34;40.92;100987.86;1779908;79;20949;-68
2021/07/10 08:24:21;;;;;;;12.95;5.47;;;;;;;31.36;40.98;101001.87;1763592;79;21034;-68
2021/07/10 08:26:47;;;;;;;11.03;5.60;;;;;;;31.38;41.51;100986.44;1729953;81;21430;-66
2021/07/10 08:29:14;;;;;;;12.33;4.87;;;;;;;31.44;41.35;100987.09;1773937;79;20980;-67
2021/07/10 08:31:41;;;;;;;8.98;5.20;;;;;;;31.49;41.36;100993.44;1778009;79;20929;-67
2021/07/10 08:34:10;;;;;;;8.05;5.08;;;;;;;31.52;41.33;100983.40;1772161;80;21011;-66
2021/07/10 08:36:41;;;;;;;13.40;5.33;;;;;;;31.52;40.63;100988.94;1776213;79;20945;-67
2021/07/10 08:39:10;;;;;;;11.83;5.50;;;;;;;31.54;40.75;100986.84;1775124;79;21482;-68
2021/07/10 08:41:36;;;;;;;12.47;5.62;;;;;;;31.60;41.45;100984.70;1774658;79;21064;-68
2021/07/10 08:44:04;;;;;;;9.38;5.47;;;;;;;31.71;41.18;100992.53;1776268;79;20897;-68
2021/07/10 08:46:30;;;;;;;14.60;5.28;;;;;;;31.77;40.44;100990.12;1773678;79;21420;-62
2021/07/10 08:48:57;;;;;;;10.30;5.58;;;;;;;31.78;40.35;100989.06;1779815;79;21375;-68
2021/07/10 08:51:24;;;;;;;11.25;5.72;;;;;;;31.81;41.06;100992.84;1776015;79;21549;-69
2021/07/10 08:53:51;;;;;;;11.48;5.40;;;;;;;31.81;40.22;100997.00;1774805;79;20963;-68
2021/07/10 08:56:17;;;;;;;8.98;5.03;;;;;;;31.71;40.47;100993.92;1772382;79;20932;-69
2021/07/10 08:58:45;;;;;;;11.50;5.40;;;;;;;31.58;40.44;100989.02;1780566;79;21373;-68
2021/07/10 09:01:12;;;;;;;11.00;5.42;;;;;;;31.53;39.97;101003.13;1782329;79;20999;-69
2021/07/10 09:03:41;;;;;;;10.03;5.05;;;;;;;31.55;39.73;101002.41;1735149;81;21087;-68
2021/07/10 09:06:10;;;;;;;17.87;5.70;;;;;;;31.55;39.95;100986.63;1772395;79;20968;-69
2021/07/10 09:08:36;;;;;;;6.65;5.12;;;;;;;31.55;40.12;100980.25;1771928;79;20999;-68
2021/07/10 09:11:13;;;;;;;10.32;5.03;;;;;;;31.57;39.28;100998.92;1764941;79;20909;-69
2021/07/10 09:13:47;;;;;;;11.43;5.25;;;;;;;31.54;39.49;100996.53;1776023;79;21977;-68
2021/07/10 09:16:18;;;;;;;13.90;5.20;;;;;;;31.50;39.53;100996.03;1729200;81;21149;-68
2021/07/10 09:18:49;;;;;;;12.25;5.40;;;;;;;31.46;39.21;100993.81;1702424;82;20994;-69
2021/07/10 09:21:36;;;;;;;10.93;5.47;;;;;;;31.46;39.59;100985.50;1713086;82;21404;-68
2021/07/10 09:24:05;;;;;;;7.95;5.05;;;;;;;31.55;39.14;100994.10;1731052;81;22354;-62
2021/07/10 09:26:32;;;;;;;11.30;5.65;;;;;;;31.59;38.89;100984.36;1706327;82;21002;-62
2021/07/10 09:29:14;;;;;;;12.47;5.95;;;;;;;31.60;38.65;100976.38;1696219;82;21726;-62
2021/07/10 09:31:48;;;;;;;14.20;5.47;;;;;;;31.60;39.02;100975.00;1746000;80;21738;-62
2021/07/10 09:34:19;;;;;;;8.25;5.00;;;;;;;31.63;39.02;100976.00;1737365;81;21059;-63
2021/07/10 09:36:53;;;;;;;9.83;5.35;;;;;;;31.66;38.55;100979.78;1709530;82;21012;-62
2021/07/10 09:39:20;;;;;;;11.93;5.47;;;;;;;31.63;38.74;100974.62;1754711;80;21038;-62
2021/07/10 09:41:46;;;;;;;19.30;6.10;;;;;;;31.61;39.04;100979.48;1747413;80;21822;-62
2021/07/10 09:44:14;;;;;;;10.90;5.40;;;;;;;31.57;39.23;100978.99;1748547;80;21358;-62
2021/07/10 09:46:42;;;;;;;13.05;5.53;;;;;;;31.55;39.21;100977.48;1707048;82;21479;-62
2021/07/10 09:49:27;;;;;;;16.65;5.97;;;;;;;31.58;39.66;100978.48;1702910;82;20987;-62
2021/07/10 09:52:07;;;;;;;8.43;5.80;;;;;;;31.60;39.63;100980.54;1746520;81;21451;-62
2021/07/10 09:54:47;;;;;;;13.18;6.05;;;;;;;31.59;39.75;100974.66;1745573;80;21726;-62
2021/07/10 09:57:28;;;;;;;13.25;6.12;;;;;;;31.60;39.55;100975.00;1753036;80;21469;-61
2021/07/10 09:59:57;;;;;;;10.58;5.35;;;;;;;31.61;39.08;100976.72;1742306;80;20992;-62
2021/07/10 10:02:33;;;;;;;15.38;6.62;;;;;;;31.64;39.13;100974.95;1747692;80;21024;-62
2021/07/10 10:05:05;;;;;;;9.43;6.37;;;;;;;31.64;38.82;100966.64;1750832;80;21490;-61
2021/07/10 10:07:57;;;;;;;9.80;6.03;;;;;;;31.60;39.28;100972.23;1746472;80;21028;-61
2021/07/10 10:10:35;;;;;;;10.10;6.20;;;;;;;31.59;39.74;100965.81;1744975;80;20886;-62
2021/07/10 10:13:09;;;;;;;14.23;6.83;;;;;;;31.64;39.93;100958.87;1746178;80;21027;-62
2021/07/10 10:15:41;;;;;;;12.90;7.30;;;;;;;31.69;39.81;100961.38;1740919;81;20944;-63
2021/07/10 10:18:11;;;;;;;10.95;6.78;;;;;;;31.70;39.47;100960.33;1749223;80;20948;-63
2021/07/10 10:20:38;;;;;;;17.65;6.83;;;;;;;31.72;39.58;100959.65;1758116;80;21740;-62
2021/07/10 10:23:04;;;;;;;14.38;6.67;;;;;;;31.73;40.11;100954.44;1749214;80;21064;-68
2021/07/10 10:25:31;;;;;;;11.88;7.00;;;;;;;31.75;40.11;100964.47;1752151;80;20893;-62
2021/07/10 10:27:58;;;;;;;14.38;6.45;;;;;;;31.75;39.74;100955.62;1752455;80;21053;-62
2021/07/10 10:30:26;;;;;;;19.25;7.35;;;;;;;31.75;39.74;100958.93;1768173;79;21397;-62
2021/07/10 10:32:53;;;;;;;14.20;7.30;;;;;;;31.71;39.99;100946.81;1769885;79;21083;-62
2021/07/10 10:35:19;;;;;;;18.62;7.20;;;;;;;31.71;40.25;100948.20;1771931;79;20981;-62
2021/07/10 10:37:46;;;;;;;10.90;7.08;;;;;;;31.75;40.54;100952.00;1736672;81;21152;-62
2021/07/10 10:40:15;;;;;;;21.02;7.40;;;;;;;31.79;40.74;100953.38;1724311;81;20963;-62
2021/07/10 10:42:44;;;;;;;13.15;7.25;;;;;;;31.79;40.94;100945.05;1725920;81;21407;-67
2021/07/10 10:45:11;;;;;;;19.80;7.47;;;;;;;31.80;40.76;100947.62;1777061;79;21414;-67
2021/07/10 10:47:42;;;;;;;15.72;7.28;;;;;;;31.82;40.65;100942.75;1776637;79;20945;-67
2021/07/10 10:50:26;;;;;;;9.45;7.10;;;;;;;31.82;40.83;100947.44;1774764;79;20926;-62
2021/07/10 10:52:54;;;;;;;14.00;8.05;;;;;;;31.82;40.17;100946.06;1768707;79;21456;-62
2021/07/10 10:55:32;;;;;;;14.70;7.70;;;;;;;31.80;40.14;100937.08;1777567;79;21433;-62
2021/07/10 10:58:30;;;;;;;13.22;7.92;;;;;;;31.76;40.72;100935.70;1773697;79;21102;-62
2021/07/10 11:01:03;;;;;;;11.53;8.10;;;;;;;31.76;40.32;100931.55;1774749;79;21105;-62
2021/07/10 11:03:41;;;;;;;11.18;8.08;;;;;;;31.72;40.52;100943.02;1774464;79;21044;-61
2021/07/10 11:06:28;;;;;;;14.38;8.73;;;;;;;31.72;40.65;100936.60;1767937;79;20989;-62
2021/07/10 11:08:55;;;;;;;16.00;9.23;;;;;;;31.72;40.75;100936.09;1772861;79;21748;-61
2021/07/10 11:11:23;;;;;;;15.95;8.75;;;;;;;31.77;40.43;100936.91;1775200;79;20962;-61
2021/07/10 11:14:10;;;;;;;11.88;8.53;;;;;;;31.75;39.64;100936.22;1774982;79;22316;-62
2021/07/10 11:17:01;;;;;;;13.50;8.68;;;;;;;31.75;39.74;100940.91;1737695;81;20965;-67
2021/07/10 11:19:45;;;;;;;11.33;8.78;;;;;;;31.74;40.07;100942.81;1693751;82;22543;-67